sensor_id;sensor_type;location;lat;lon;timestamp;P1;durP1;ratioP1;P2;durP2;ratioP2
80732;SDS011;70130;44.534;18.678;2023-12-20T00:02:08;219.60;;;100.88;;
80732;SDS011;70130;44.534;18.678;2023-12-20T00:04:36;239.00;;;108.93;;
80732;SDS011;70130;44.534;18.678;2023-12-20T00:07:02;257.57;;;113.97;;
80732;SDS011;70130;44.534;18.678;2023-12-20T00:09:28;258.93;;;115.80;;
80732;SDS011;70130;44.534;18.678;2023-12-20T00:12:00;254.07;;;116.40;;
80732;SDS011;70130;44.534;18.678;2023-12-20T00:14:28;279.13;;;123.20;;
80732;SDS011;70130;44.534;18.678;2023-12-20T00:16:54;329.63;;;147.37;;
80732;SDS011;70130;44.534;18.678;2023-12-20T00:19:19;317.53;;;141.80;;
80732;SDS011;70130;44.534;18.678;2023-12-20T00:22:03;288.27;;;124.63;;
80732;SDS011;70130;44.534;18.678;2023-12-20T00:24:41;255.07;;;115.97;;
80732;SDS011;70130;44.534;18.678;2023-12-20T00:27:10;243.73;;;107.73;;
80732;SDS011;70130;44.534;18.678;2023-12-20T00:29:35;220.43;;;98.30;;
80732;SDS011;70130;44.534;18.678;2023-12-20T00:32:13;216.73;;;97.00;;
80732;SDS011;70130;44.534;18.678;2023-12-20T00:34:45;204.93;;;96.60;;
80732;SDS011;70130;44.534;18.678;2023-12-20T00:37:14;203.73;;;92.93;;
80732;SDS011;70130;44.534;18.678;2023-12-20T00:39:39;214.70;;;98.63;;
80732;SDS011;70130;44.534;18.678;2023-12-20T00:42:11;200.97;;;94.00;;
80732;SDS011;70130;44.534;18.678;2023-12-20T00:44:40;215.23;;;96.30;;
80732;SDS011;70130;44.534;18.678;2023-12-20T00:47:05;189.73;;;90.00;;
80732;SDS011;70130;44.534;18.678;2023-12-20T00:49:43;194.27;;;88.63;;
80732;SDS011;70130;44.534;18.678;2023-12-20T00:52:12;216.70;;;98.33;;
80732;SDS011;70130;44.534;18.678;2023-12-20T00:54:44;226.27;;;102.67;;
80732;SDS011;70130;44.534;18.678;2023-12-20T00:57:13;251.83;;;108.77;;
80732;SDS011;70130;44.534;18.678;2023-12-20T00:59:51;250.47;;;110.63;;
80732;SDS011;70130;44.534;18.678;2023-12-20T01:02:20;223.93;;;98.80;;
80732;SDS011;70130;44.534;18.678;2023-12-20T01:04:46;198.40;;;92.27;;
80732;SDS011;70130;44.534;18.678;2023-12-20T01:07:14;198.73;;;89.43;;
80732;SDS011;70130;44.534;18.678;2023-12-20T01:09:40;185.50;;;82.00;;
80732;SDS011;70130;44.534;18.678;2023-12-20T01:12:09;176.50;;;82.17;;
80732;SDS011;70130;44.534;18.678;2023-12-20T01:14:47;179.57;;;80.43;;
80732;SDS011;70130;44.534;18.678;2023-12-20T01:17:16;174.13;;;76.63;;
80732;SDS011;70130;44.534;18.678;2023-12-20T01:22:48;152.77;;;67.60;;
80732;SDS011;70130;44.534;18.678;2023-12-20T01:28:19;158.90;;;72.73;;
80732;SDS011;70130;44.534;18.678;2023-12-20T01:31:03;169.93;;;78.73;;
80732;SDS011;70130;44.534;18.678;2023-12-20T01:33:32;174.13;;;81.20;;
80732;SDS011;70130;44.534;18.678;2023-12-20T01:36:01;189.13;;;85.37;;
80732;SDS011;70130;44.534;18.678;2023-12-20T01:38:27;190.90;;;84.53;;
80732;SDS011;70130;44.534;18.678;2023-12-20T01:40:55;189.90;;;88.10;;
80732;SDS011;70130;44.534;18.678;2023-12-20T01:43:21;212.40;;;97.30;;
80732;SDS011;70130;44.534;18.678;2023-12-20T01:45:49;230.50;;;101.17;;
80732;SDS011;70130;44.534;18.678;2023-12-20T01:48:18;249.17;;;109.73;;
80732;SDS011;70130;44.534;18.678;2023-12-20T01:50:48;244.23;;;105.80;;
80732;SDS011;70130;44.534;18.678;2023-12-20T01:53:26;216.47;;;95.27;;
80732;SDS011;70130;44.534;18.678;2023-12-20T01:55:56;212.20;;;93.23;;
80732;SDS011;70130;44.534;18.678;2023-12-20T01:58:24;203.52;;;90.22;;
80732;SDS011;70130;44.534;18.678;2023-12-20T02:00:54;183.93;;;81.30;;
80732;SDS011;70130;44.534;18.678;2023-12-20T02:03:32;192.97;;;82.60;;
80732;SDS011;70130;44.534;18.678;2023-12-20T02:06:00;182.27;;;80.40;;
80732;SDS011;70130;44.534;18.678;2023-12-20T02:11:19;141.15;;;63.42;;
80732;SDS011;70130;44.534;18.678;2023-12-20T02:14:01;155.87;;;63.27;;
80732;SDS011;70130;44.534;18.678;2023-12-20T02:16:30;125.50;;;56.37;;
80732;SDS011;70130;44.534;18.678;2023-12-20T02:18:56;131.37;;;58.57;;
80732;SDS011;70130;44.534;18.678;2023-12-20T02:21:25;135.20;;;59.97;;
80732;SDS011;70130;44.534;18.678;2023-12-20T02:24:00;146.77;;;68.10;;
80732;SDS011;70130;44.534;18.678;2023-12-20T02:26:37;169.77;;;76.30;;
80732;SDS011;70130;44.534;18.678;2023-12-20T02:29:06;175.03;;;81.63;;
80732;SDS011;70130;44.534;18.678;2023-12-20T02:31:41;203.87;;;91.00;;
80732;SDS011;70130;44.534;18.678;2023-12-20T02:34:13;207.30;;;92.53;;
80732;SDS011;70130;44.534;18.678;2023-12-20T02:36:42;209.47;;;92.47;;
80732;SDS011;70130;44.534;18.678;2023-12-20T02:39:07;189.37;;;83.30;;
80732;SDS011;70130;44.534;18.678;2023-12-20T02:41:36;171.87;;;73.03;;
80732;SDS011;70130;44.534;18.678;2023-12-20T02:44:02;147.43;;;69.47;;
80732;SDS011;70130;44.534;18.678;2023-12-20T02:49:31;136.63;;;60.50;;
80732;SDS011;70130;44.534;18.678;2023-12-20T02:52:00;128.77;;;57.60;;
80732;SDS011;70130;44.534;18.678;2023-12-20T02:54:38;130.63;;;57.33;;
80732;SDS011;70130;44.534;18.678;2023-12-20T02:57:07;123.47;;;53.40;;
80732;SDS011;70130;44.534;18.678;2023-12-20T02:59:36;128.20;;;55.63;;
80732;SDS011;70130;44.534;18.678;2023-12-20T03:02:20;121.07;;;55.00;;
80732;SDS011;70130;44.534;18.678;2023-12-20T03:04:48;123.30;;;56.23;;
80732;SDS011;70130;44.534;18.678;2023-12-20T03:10:21;136.07;;;61.70;;
80732;SDS011;70130;44.534;18.678;2023-12-20T03:12:49;142.50;;;62.37;;
80732;SDS011;70130;44.534;18.678;2023-12-20T03:15:18;141.77;;;66.57;;
80732;SDS011;70130;44.534;18.678;2023-12-20T03:18:02;148.90;;;65.23;;
80732;SDS011;70130;44.534;18.678;2023-12-20T03:20:31;145.33;;;66.33;;
80732;SDS011;70130;44.534;18.678;2023-12-20T03:25:56;139.57;;;59.33;;
80732;SDS011;70130;44.534;18.678;2023-12-20T03:28:25;125.20;;;59.13;;
80732;SDS011;70130;44.534;18.678;2023-12-20T03:30:55;137.32;;;63.15;;
80732;SDS011;70130;44.534;18.678;2023-12-20T03:36:27;143.70;;;61.47;;
80732;SDS011;70130;44.534;18.678;2023-12-20T03:38:55;141.37;;;64.53;;
80732;SDS011;70130;44.534;18.678;2023-12-20T03:41:21;139.10;;;62.23;;
80732;SDS011;70130;44.534;18.678;2023-12-20T03:43:46;133.10;;;62.00;;
80732;SDS011;70130;44.534;18.678;2023-12-20T03:46:12;121.63;;;54.60;;
80732;SDS011;70130;44.534;18.678;2023-12-20T03:48:38;128.87;;;55.13;;
80732;SDS011;70130;44.534;18.678;2023-12-20T03:51:06;119.10;;;52.60;;
80732;SDS011;70130;44.534;18.678;2023-12-20T03:56:44;110.73;;;50.57;;
80732;SDS011;70130;44.534;18.678;2023-12-20T03:59:13;103.80;;;45.83;;
80732;SDS011;70130;44.534;18.678;2023-12-20T04:08:01;94.43;;;40.17;;
80732;SDS011;70130;44.534;18.678;2023-12-20T04:10:42;93.20;;;43.17;;
80732;SDS011;70130;44.534;18.678;2023-12-20T04:13:10;86.20;;;36.87;;
80732;SDS011;70130;44.534;18.678;2023-12-20T04:15:54;88.77;;;40.10;;
80732;SDS011;70130;44.534;18.678;2023-12-20T04:18:23;86.17;;;37.83;;
80732;SDS011;70130;44.534;18.678;2023-12-20T04:20:54;81.20;;;36.80;;
80732;SDS011;70130;44.534;18.678;2023-12-20T04:26:26;96.60;;;42.33;;
80732;SDS011;70130;44.534;18.678;2023-12-20T04:28:55;100.37;;;44.90;;
80732;SDS011;70130;44.534;18.678;2023-12-20T04:31:21;110.97;;;50.87;;
80732;SDS011;70130;44.534;18.678;2023-12-20T04:36:40;108.17;;;52.53;;
80732;SDS011;70130;44.534;18.678;2023-12-20T04:41:59;116.00;;;53.57;;
80732;SDS011;70130;44.534;18.678;2023-12-20T04:47:12;124.20;;;55.50;;
80732;SDS011;70130;44.534;18.678;2023-12-20T04:49:50;123.03;;;57.10;;
80732;SDS011;70130;44.534;18.678;2023-12-20T04:52:34;134.10;;;59.90;;
80732;SDS011;70130;44.534;18.678;2023-12-20T04:55:03;140.13;;;58.10;;
80732;SDS011;70130;44.534;18.678;2023-12-20T04:57:41;120.37;;;54.73;;
80732;SDS011;70130;44.534;18.678;2023-12-20T05:03:50;104.20;;;46.78;;
80732;SDS011;70130;44.534;18.678;2023-12-20T05:06:15;97.87;;;45.43;;
80732;SDS011;70130;44.534;18.678;2023-12-20T05:08:41;97.77;;;45.33;;
80732;SDS011;70130;44.534;18.678;2023-12-20T05:14:13;108.37;;;48.20;;
80732;SDS011;70130;44.534;18.678;2023-12-20T05:16:39;91.83;;;42.40;;
80732;SDS011;70130;44.534;18.678;2023-12-20T05:19:04;93.73;;;45.20;;
80732;SDS011;70130;44.534;18.678;2023-12-20T05:21:50;93.30;;;45.43;;
80732;SDS011;70130;44.534;18.678;2023-12-20T05:27:24;105.77;;;46.47;;
80732;SDS011;70130;44.534;18.678;2023-12-20T05:32:56;102.47;;;48.17;;
80732;SDS011;70130;44.534;18.678;2023-12-20T05:35:22;93.37;;;44.40;;
80732;SDS011;70130;44.534;18.678;2023-12-20T05:44:13;137.13;;;60.07;;
80732;SDS011;70130;44.534;18.678;2023-12-20T05:46:42;147.70;;;66.93;;
80732;SDS011;70130;44.534;18.678;2023-12-20T05:49:07;150.03;;;68.70;;
80732;SDS011;70130;44.534;18.678;2023-12-20T05:51:39;158.90;;;71.97;;
80732;SDS011;70130;44.534;18.678;2023-12-20T05:54:05;173.37;;;74.90;;
80732;SDS011;70130;44.534;18.678;2023-12-20T05:59:49;158.93;;;67.53;;
80732;SDS011;70130;44.534;18.678;2023-12-20T06:02:14;140.00;;;61.47;;
80732;SDS011;70130;44.534;18.678;2023-12-20T06:04:46;138.63;;;61.00;;
80732;SDS011;70130;44.534;18.678;2023-12-20T06:07:12;127.60;;;58.90;;
80732;SDS011;70130;44.534;18.678;2023-12-20T06:09:38;146.30;;;62.47;;
80732;SDS011;70130;44.534;18.678;2023-12-20T06:12:04;149.17;;;66.53;;
80732;SDS011;70130;44.534;18.678;2023-12-20T06:14:30;128.47;;;59.20;;
80732;SDS011;70130;44.534;18.678;2023-12-20T06:16:59;136.07;;;65.00;;
80732;SDS011;70130;44.534;18.678;2023-12-20T06:19:24;138.80;;;63.70;;
80732;SDS011;70130;44.534;18.678;2023-12-20T06:21:50;157.87;;;71.23;;
80732;SDS011;70130;44.534;18.678;2023-12-20T06:24:16;162.10;;;69.63;;
80732;SDS011;70130;44.534;18.678;2023-12-20T06:26:41;145.70;;;64.97;;
80732;SDS011;70130;44.534;18.678;2023-12-20T06:29:07;146.27;;;63.03;;
80732;SDS011;70130;44.534;18.678;2023-12-20T06:31:33;150.63;;;67.73;;
80732;SDS011;70130;44.534;18.678;2023-12-20T06:33:59;165.03;;;70.73;;
80732;SDS011;70130;44.534;18.678;2023-12-20T06:36:26;156.27;;;65.60;;
80732;SDS011;70130;44.534;18.678;2023-12-20T06:38:52;160.60;;;65.03;;
80732;SDS011;70130;44.534;18.678;2023-12-20T06:41:17;182.27;;;82.80;;
80732;SDS011;70130;44.534;18.678;2023-12-20T06:43:43;177.97;;;82.40;;
80732;SDS011;70130;44.534;18.678;2023-12-20T06:46:10;197.27;;;86.73;;
80732;SDS011;70130;44.534;18.678;2023-12-20T06:48:38;184.77;;;80.37;;
80732;SDS011;70130;44.534;18.678;2023-12-20T06:51:04;188.03;;;83.00;;
80732;SDS011;70130;44.534;18.678;2023-12-20T06:53:30;208.10;;;89.83;;
80732;SDS011;70130;44.534;18.678;2023-12-20T06:55:56;171.20;;;80.40;;
80732;SDS011;70130;44.534;18.678;2023-12-20T06:58:22;182.87;;;83.63;;
80732;SDS011;70130;44.534;18.678;2023-12-20T07:00:48;183.97;;;83.93;;
80732;SDS011;70130;44.534;18.678;2023-12-20T07:03:16;171.17;;;81.20;;
80732;SDS011;70130;44.534;18.678;2023-12-20T07:05:42;141.87;;;72.00;;
80732;SDS011;70130;44.534;18.678;2023-12-20T07:08:08;158.23;;;74.27;;
80732;SDS011;70130;44.534;18.678;2023-12-20T07:10:34;155.30;;;75.10;;
80732;SDS011;70130;44.534;18.678;2023-12-20T07:13:00;156.17;;;72.47;;
80732;SDS011;70130;44.534;18.678;2023-12-20T07:15:25;160.93;;;75.50;;
80732;SDS011;70130;44.534;18.678;2023-12-20T07:17:52;153.67;;;75.80;;
80732;SDS011;70130;44.534;18.678;2023-12-20T07:20:18;145.10;;;70.63;;
80732;SDS011;70130;44.534;18.678;2023-12-20T07:22:43;143.60;;;71.00;;
80732;SDS011;70130;44.534;18.678;2023-12-20T07:25:09;165.87;;;74.50;;
80732;SDS011;70130;44.534;18.678;2023-12-20T07:27:35;159.77;;;79.17;;
80732;SDS011;70130;44.534;18.678;2023-12-20T07:30:04;188.00;;;85.53;;
80732;SDS011;70130;44.534;18.678;2023-12-20T07:32:30;207.13;;;93.30;;
80732;SDS011;70130;44.534;18.678;2023-12-20T07:34:56;206.73;;;97.03;;
80732;SDS011;70130;44.534;18.678;2023-12-20T07:37:21;187.33;;;87.60;;
80732;SDS011;70130;44.534;18.678;2023-12-20T07:39:47;199.40;;;90.60;;
80732;SDS011;70130;44.534;18.678;2023-12-20T07:42:13;192.77;;;92.67;;
80732;SDS011;70130;44.534;18.678;2023-12-20T07:44:38;174.77;;;86.33;;
80732;SDS011;70130;44.534;18.678;2023-12-20T07:47:04;184.47;;;88.40;;
80732;SDS011;70130;44.534;18.678;2023-12-20T07:49:30;197.63;;;89.93;;
80732;SDS011;70130;44.534;18.678;2023-12-20T07:51:56;183.93;;;92.73;;
80732;SDS011;70130;44.534;18.678;2023-12-20T07:54:22;237.37;;;110.03;;
80732;SDS011;70130;44.534;18.678;2023-12-20T07:56:48;233.07;;;111.63;;
80732;SDS011;70130;44.534;18.678;2023-12-20T07:59:14;220.27;;;107.90;;
80732;SDS011;70130;44.534;18.678;2023-12-20T08:01:39;224.77;;;104.17;;
80732;SDS011;70130;44.534;18.678;2023-12-20T08:04:05;202.80;;;100.10;;
80732;SDS011;70130;44.534;18.678;2023-12-20T08:06:31;190.03;;;92.20;;
80732;SDS011;70130;44.534;18.678;2023-12-20T08:08:57;165.87;;;84.57;;
80732;SDS011;70130;44.534;18.678;2023-12-20T08:15:09;175.17;;;84.13;;
80732;SDS011;70130;44.534;18.678;2023-12-20T08:17:36;215.43;;;98.53;;
80732;SDS011;70130;44.534;18.678;2023-12-20T08:20:08;296.97;;;132.37;;
80732;SDS011;70130;44.534;18.678;2023-12-20T08:22:34;301.50;;;135.80;;
80732;SDS011;70130;44.534;18.678;2023-12-20T08:25:00;280.77;;;135.30;;
80732;SDS011;70130;44.534;18.678;2023-12-20T08:27:26;291.17;;;131.47;;
80732;SDS011;70130;44.534;18.678;2023-12-20T08:29:52;293.50;;;137.90;;
80732;SDS011;70130;44.534;18.678;2023-12-20T08:32:18;289.73;;;133.90;;
80732;SDS011;70130;44.534;18.678;2023-12-20T08:34:43;255.80;;;121.93;;
80732;SDS011;70130;44.534;18.678;2023-12-20T08:37:09;265.17;;;125.10;;
80732;SDS011;70130;44.534;18.678;2023-12-20T08:39:34;233.30;;;113.93;;
80732;SDS011;70130;44.534;18.678;2023-12-20T08:42:00;218.83;;;110.00;;
80732;SDS011;70130;44.534;18.678;2023-12-20T08:44:26;208.87;;;107.07;;
80732;SDS011;70130;44.534;18.678;2023-12-20T08:46:51;225.17;;;111.67;;
80732;SDS011;70130;44.534;18.678;2023-12-20T08:49:17;245.17;;;121.23;;
80732;SDS011;70130;44.534;18.678;2023-12-20T08:51:42;255.93;;;124.97;;
80732;SDS011;70130;44.534;18.678;2023-12-20T08:54:09;244.80;;;123.33;;
80732;SDS011;70130;44.534;18.678;2023-12-20T08:56:34;238.90;;;122.80;;
80732;SDS011;70130;44.534;18.678;2023-12-20T08:59:00;235.87;;;120.33;;
80732;SDS011;70130;44.534;18.678;2023-12-20T09:01:26;223.93;;;114.97;;
80732;SDS011;70130;44.534;18.678;2023-12-20T09:03:51;223.57;;;114.77;;
80732;SDS011;70130;44.534;18.678;2023-12-20T09:06:17;221.87;;;111.20;;
80732;SDS011;70130;44.534;18.678;2023-12-20T09:08:42;221.97;;;110.53;;
80732;SDS011;70130;44.534;18.678;2023-12-20T09:11:10;226.23;;;115.80;;
80732;SDS011;70130;44.534;18.678;2023-12-20T09:13:36;202.27;;;101.67;;
80732;SDS011;70130;44.534;18.678;2023-12-20T09:16:02;218.87;;;110.13;;
80732;SDS011;70130;44.534;18.678;2023-12-20T09:18:28;243.87;;;122.07;;
80732;SDS011;70130;44.534;18.678;2023-12-20T09:20:55;268.13;;;133.47;;
80732;SDS011;70130;44.534;18.678;2023-12-20T09:23:21;268.87;;;133.37;;
80732;SDS011;70130;44.534;18.678;2023-12-20T09:25:48;234.87;;;117.10;;
80732;SDS011;70130;44.534;18.678;2023-12-20T09:28:17;188.82;;;96.03;;
80732;SDS011;70130;44.534;18.678;2023-12-20T09:30:47;193.37;;;99.83;;
80732;SDS011;70130;44.534;18.678;2023-12-20T09:33:13;222.70;;;109.53;;
80732;SDS011;70130;44.534;18.678;2023-12-20T09:35:39;204.10;;;103.80;;
80732;SDS011;70130;44.534;18.678;2023-12-20T09:38:05;217.20;;;110.13;;
80732;SDS011;70130;44.534;18.678;2023-12-20T09:40:32;223.40;;;113.93;;
80732;SDS011;70130;44.534;18.678;2023-12-20T09:43:08;227.23;;;113.63;;
80732;SDS011;70130;44.534;18.678;2023-12-20T09:45:36;230.70;;;113.90;;
80732;SDS011;70130;44.534;18.678;2023-12-20T09:48:02;232.83;;;117.37;;
80732;SDS011;70130;44.534;18.678;2023-12-20T09:50:30;248.83;;;122.37;;
80732;SDS011;70130;44.534;18.678;2023-12-20T09:52:57;247.77;;;120.03;;
80732;SDS011;70130;44.534;18.678;2023-12-20T09:55:25;238.47;;;106.80;;
80732;SDS011;70130;44.534;18.678;2023-12-20T09:57:52;218.67;;;98.00;;
80732;SDS011;70130;44.534;18.678;2023-12-20T10:00:18;233.00;;;104.43;;
80732;SDS011;70130;44.534;18.678;2023-12-20T10:02:59;217.80;;;104.73;;
80732;SDS011;70130;44.534;18.678;2023-12-20T10:05:29;223.37;;;108.07;;
80732;SDS011;70130;44.534;18.678;2023-12-20T10:07:56;217.85;;;104.68;;
80732;SDS011;70130;44.534;18.678;2023-12-20T10:10:22;208.43;;;106.03;;
80732;SDS011;70130;44.534;18.678;2023-12-20T10:13:01;232.77;;;117.33;;
80732;SDS011;70130;44.534;18.678;2023-12-20T10:15:34;228.03;;;113.57;;
80732;SDS011;70130;44.534;18.678;2023-12-20T10:18:01;222.40;;;117.70;;
80732;SDS011;70130;44.534;18.678;2023-12-20T10:20:28;210.37;;;112.83;;
80732;SDS011;70130;44.534;18.678;2023-12-20T10:22:58;156.93;;;82.70;;
80732;SDS011;70130;44.534;18.678;2023-12-20T10:25:25;182.43;;;92.00;;
80732;SDS011;70130;44.534;18.678;2023-12-20T10:27:57;167.70;;;84.50;;
80732;SDS011;70130;44.534;18.678;2023-12-20T10:30:34;208.63;;;109.73;;
80732;SDS011;70130;44.534;18.678;2023-12-20T10:33:01;212.93;;;107.57;;
80732;SDS011;70130;44.534;18.678;2023-12-20T10:35:26;202.53;;;107.03;;
80732;SDS011;70130;44.534;18.678;2023-12-20T10:37:54;211.50;;;108.57;;
80732;SDS011;70130;44.534;18.678;2023-12-20T10:40:25;231.87;;;118.17;;
80732;SDS011;70130;44.534;18.678;2023-12-20T10:42:55;306.40;;;137.93;;
80732;SDS011;70130;44.534;18.678;2023-12-20T10:48:07;287.53;;;144.23;;
80732;SDS011;70130;44.534;18.678;2023-12-20T10:50:37;327.20;;;161.30;;
80732;SDS011;70130;44.534;18.678;2023-12-20T10:53:06;298.80;;;148.35;;
80732;SDS011;70130;44.534;18.678;2023-12-20T10:55:31;299.73;;;140.87;;
80732;SDS011;70130;44.534;18.678;2023-12-20T10:58:01;318.30;;;136.23;;
80732;SDS011;70130;44.534;18.678;2023-12-20T11:00:35;310.80;;;137.80;;
80732;SDS011;70130;44.534;18.678;2023-12-20T11:03:08;324.93;;;141.63;;
80732;SDS011;70130;44.534;18.678;2023-12-20T11:05:59;323.97;;;144.03;;
80732;SDS011;70130;44.534;18.678;2023-12-20T11:11:35;284.63;;;135.50;;
80732;SDS011;70130;44.534;18.678;2023-12-20T11:14:13;266.57;;;133.07;;
80732;SDS011;70130;44.534;18.678;2023-12-20T11:16:44;272.30;;;139.17;;
80732;SDS011;70130;44.534;18.678;2023-12-20T11:19:13;268.90;;;134.00;;
80732;SDS011;70130;44.534;18.678;2023-12-20T11:21:39;281.50;;;138.07;;
80732;SDS011;70130;44.534;18.678;2023-12-20T11:24:07;290.80;;;142.97;;
80732;SDS011;70130;44.534;18.678;2023-12-20T11:26:33;325.53;;;161.00;;
80732;SDS011;70130;44.534;18.678;2023-12-20T11:29:28;307.37;;;150.77;;
80732;SDS011;70130;44.534;18.678;2023-12-20T11:34:53;258.33;;;131.20;;
80732;SDS011;70130;44.534;18.678;2023-12-20T11:37:22;240.77;;;125.43;;
80732;SDS011;70130;44.534;18.678;2023-12-20T11:42:32;233.27;;;114.50;;
80732;SDS011;70130;44.534;18.678;2023-12-20T11:45:01;249.68;;;129.02;;
80732;SDS011;70130;44.534;18.678;2023-12-20T11:47:32;272.33;;;137.60;;
80732;SDS011;70130;44.534;18.678;2023-12-20T11:50:02;272.77;;;138.00;;
80732;SDS011;70130;44.534;18.678;2023-12-20T11:52:32;273.63;;;135.00;;
80732;SDS011;70130;44.534;18.678;2023-12-20T11:55:01;254.90;;;126.00;;
80732;SDS011;70130;44.534;18.678;2023-12-20T11:57:31;218.05;;;110.68;;
80732;SDS011;70130;44.534;18.678;2023-12-20T12:00:00;268.95;;;135.60;;
80732;SDS011;70130;44.534;18.678;2023-12-20T12:02:37;257.23;;;126.65;;
80732;SDS011;70130;44.534;18.678;2023-12-20T12:05:03;254.43;;;129.45;;
80732;SDS011;70130;44.534;18.678;2023-12-20T12:07:32;249.88;;;125.97;;
80732;SDS011;70130;44.534;18.678;2023-12-20T12:09:58;248.93;;;128.02;;
80732;SDS011;70130;44.534;18.678;2023-12-20T12:12:24;238.85;;;117.03;;
80732;SDS011;70130;44.534;18.678;2023-12-20T12:14:54;240.85;;;115.80;;
80732;SDS011;70130;44.534;18.678;2023-12-20T12:17:21;224.02;;;108.82;;
80732;SDS011;70130;44.534;18.678;2023-12-20T12:19:47;224.68;;;113.50;;
80732;SDS011;70130;44.534;18.678;2023-12-20T12:22:13;207.23;;;106.78;;
80732;SDS011;70130;44.534;18.678;2023-12-20T12:24:44;216.02;;;107.03;;
80732;SDS011;70130;44.534;18.678;2023-12-20T12:27:11;347.92;;;149.35;;
80732;SDS011;70130;44.534;18.678;2023-12-20T12:29:38;287.77;;;130.82;;
80732;SDS011;70130;44.534;18.678;2023-12-20T12:32:04;287.75;;;130.63;;
80732;SDS011;70130;44.534;18.678;2023-12-20T12:34:34;277.85;;;122.03;;
80732;SDS011;70130;44.534;18.678;2023-12-20T12:37:00;203.48;;;95.88;;
80732;SDS011;70130;44.534;18.678;2023-12-20T12:39:26;192.70;;;94.18;;
80732;SDS011;70130;44.534;18.678;2023-12-20T12:41:53;200.63;;;96.63;;
80732;SDS011;70130;44.534;18.678;2023-12-20T12:44:19;150.65;;;77.70;;
80732;SDS011;70130;44.534;18.678;2023-12-20T12:46:48;166.85;;;84.43;;
80732;SDS011;70130;44.534;18.678;2023-12-20T12:49:19;166.77;;;83.97;;
80732;SDS011;70130;44.534;18.678;2023-12-20T12:51:47;142.32;;;70.63;;
80732;SDS011;70130;44.534;18.678;2023-12-20T12:54:13;149.85;;;73.68;;
80732;SDS011;70130;44.534;18.678;2023-12-20T12:56:41;144.68;;;71.18;;
80732;SDS011;70130;44.534;18.678;2023-12-20T12:59:08;155.20;;;79.13;;
80732;SDS011;70130;44.534;18.678;2023-12-20T13:01:33;146.32;;;72.88;;
80732;SDS011;70130;44.534;18.678;2023-12-20T13:03:59;160.27;;;84.97;;
80732;SDS011;70130;44.534;18.678;2023-12-20T13:06:26;162.60;;;83.55;;
80732;SDS011;70130;44.534;18.678;2023-12-20T13:08:52;131.82;;;64.07;;
80732;SDS011;70130;44.534;18.678;2023-12-20T13:11:18;156.07;;;78.82;;
80732;SDS011;70130;44.534;18.678;2023-12-20T13:20:38;144.23;;;74.97;;
80732;SDS011;70130;44.534;18.678;2023-12-20T13:23:05;134.98;;;72.00;;
80732;SDS011;70130;44.534;18.678;2023-12-20T13:25:31;167.85;;;83.30;;
80732;SDS011;70130;44.534;18.678;2023-12-20T13:27:58;162.52;;;83.30;;
80732;SDS011;70130;44.534;18.678;2023-12-20T13:30:24;234.80;;;105.85;;
80732;SDS011;70130;44.534;18.678;2023-12-20T13:32:50;266.00;;;114.07;;
80732;SDS011;70130;44.534;18.678;2023-12-20T13:35:16;229.52;;;104.82;;
80732;SDS011;70130;44.534;18.678;2023-12-20T13:37:41;230.18;;;105.10;;
80732;SDS011;70130;44.534;18.678;2023-12-20T13:40:07;203.68;;;89.05;;
80732;SDS011;70130;44.534;18.678;2023-12-20T13:42:33;198.55;;;92.00;;
80732;SDS011;70130;44.534;18.678;2023-12-20T13:44:59;179.13;;;82.00;;
80732;SDS011;70130;44.534;18.678;2023-12-20T13:47:25;168.13;;;80.18;;
80732;SDS011;70130;44.534;18.678;2023-12-20T13:49:51;121.47;;;55.70;;
80732;SDS011;70130;44.534;18.678;2023-12-20T13:52:16;64.70;;;29.10;;
80732;SDS011;70130;44.534;18.678;2023-12-20T13:54:42;58.67;;;25.63;;
80732;SDS011;70130;44.534;18.678;2023-12-20T13:57:08;32.08;;;16.80;;
80732;SDS011;70130;44.534;18.678;2023-12-20T13:59:33;21.05;;;11.32;;
80732;SDS011;70130;44.534;18.678;2023-12-20T14:02:00;20.80;;;10.48;;
80732;SDS011;70130;44.534;18.678;2023-12-20T14:04:28;28.38;;;14.15;;
80732;SDS011;70130;44.534;18.678;2023-12-20T14:06:54;24.42;;;13.48;;
80732;SDS011;70130;44.534;18.678;2023-12-20T14:09:20;14.35;;;8.52;;
80732;SDS011;70130;44.534;18.678;2023-12-20T14:11:46;24.98;;;11.55;;
80732;SDS011;70130;44.534;18.678;2023-12-20T14:14:11;15.52;;;9.45;;
80732;SDS011;70130;44.534;18.678;2023-12-20T14:16:37;18.27;;;9.70;;
80732;SDS011;70130;44.534;18.678;2023-12-20T14:19:03;13.80;;;8.57;;
80732;SDS011;70130;44.534;18.678;2023-12-20T14:21:30;14.38;;;7.45;;
80732;SDS011;70130;44.534;18.678;2023-12-20T14:23:56;15.32;;;7.97;;
80732;SDS011;70130;44.534;18.678;2023-12-20T14:26:21;9.98;;;6.50;;
80732;SDS011;70130;44.534;18.678;2023-12-20T14:28:47;13.32;;;7.05;;
80732;SDS011;70130;44.534;18.678;2023-12-20T14:31:13;19.13;;;8.52;;
80732;SDS011;70130;44.534;18.678;2023-12-20T14:33:38;20.40;;;10.75;;
80732;SDS011;70130;44.534;18.678;2023-12-20T14:36:05;25.17;;;11.18;;
80732;SDS011;70130;44.534;18.678;2023-12-20T14:38:31;16.83;;;9.00;;
80732;SDS011;70130;44.534;18.678;2023-12-20T14:40:57;18.10;;;10.05;;
80732;SDS011;70130;44.534;18.678;2023-12-20T14:43:23;14.88;;;8.07;;
80732;SDS011;70130;44.534;18.678;2023-12-20T14:45:48;21.10;;;9.18;;
80732;SDS011;70130;44.534;18.678;2023-12-20T14:48:16;18.42;;;9.10;;
80732;SDS011;70130;44.534;18.678;2023-12-20T14:50:48;19.25;;;8.20;;
80732;SDS011;70130;44.534;18.678;2023-12-20T14:53:14;18.30;;;9.25;;
80732;SDS011;70130;44.534;18.678;2023-12-20T14:55:50;15.93;;;8.90;;
80732;SDS011;70130;44.534;18.678;2023-12-20T14:58:16;26.85;;;9.95;;
80732;SDS011;70130;44.534;18.678;2023-12-20T15:00:45;16.05;;;7.97;;
80732;SDS011;70130;44.534;18.678;2023-12-20T15:03:14;18.92;;;10.25;;
80732;SDS011;70130;44.534;18.678;2023-12-20T15:05:41;21.67;;;11.15;;
80732;SDS011;70130;44.534;18.678;2023-12-20T15:08:10;25.13;;;11.75;;
80732;SDS011;70130;44.534;18.678;2023-12-20T15:10:38;21.02;;;9.13;;
80732;SDS011;70130;44.534;18.678;2023-12-20T15:13:04;21.67;;;11.55;;
80732;SDS011;70130;44.534;18.678;2023-12-20T15:15:34;18.73;;;10.32;;
80732;SDS011;70130;44.534;18.678;2023-12-20T15:18:03;28.30;;;11.98;;
80732;SDS011;70130;44.534;18.678;2023-12-20T15:20:29;25.02;;;12.32;;
80732;SDS011;70130;44.534;18.678;2023-12-20T15:22:58;20.02;;;11.63;;
80732;SDS011;70130;44.534;18.678;2023-12-20T15:25:32;27.23;;;13.32;;
80732;SDS011;70130;44.534;18.678;2023-12-20T15:28:01;25.65;;;14.65;;
80732;SDS011;70130;44.534;18.678;2023-12-20T15:30:30;32.60;;;18.08;;